sensor_id;sensor_type;location;lat;lon;timestamp;temperature;humidity
40434;DHT22;26146;51.114;5.654;2023-05-14T00:01:56;14.50;99.90
40434;DHT22;26146;51.114;5.654;2023-05-14T00:05:57;14.50;99.90
40434;DHT22;26146;51.114;5.654;2023-05-14T00:09:59;14.50;99.90
40434;DHT22;26146;51.114;5.654;2023-05-14T00:14:00;14.40;99.90
40434;DHT22;26146;51.114;5.654;2023-05-14T00:18:01;14.30;99.90
40434;DHT22;26146;51.114;5.654;2023-05-14T00:22:02;14.20;99.90
40434;DHT22;26146;51.114;5.654;2023-05-14T00:26:03;14.20;99.90
40434;DHT22;26146;51.114;5.654;2023-05-14T00:30:05;14.10;99.90
40434;DHT22;26146;51.114;5.654;2023-05-14T00:34:06;14.00;99.90
40434;DHT22;26146;51.114;5.654;2023-05-14T00:38:08;13.90;99.90
40434;DHT22;26146;51.114;5.654;2023-05-14T00:42:09;13.90;99.90
40434;DHT22;26146;51.114;5.654;2023-05-14T00:46:10;13.80;99.90
40434;DHT22;26146;51.114;5.654;2023-05-14T00:50:12;13.80;99.90
40434;DHT22;26146;51.114;5.654;2023-05-14T00:54:16;13.80;99.90
40434;DHT22;26146;51.114;5.654;2023-05-14T00:58:17;13.80;99.90
40434;DHT22;26146;51.114;5.654;2023-05-14T01:02:19;13.80;99.90
40434;DHT22;26146;51.114;5.654;2023-05-14T01:14:53;13.70;99.90
40434;DHT22;26146;51.114;5.654;2023-05-14T01:18:56;13.70;99.90
40434;DHT22;26146;51.114;5.654;2023-05-14T01:22:58;13.70;99.90
40434;DHT22;26146;51.114;5.654;2023-05-14T01:31:17;13.60;99.90
40434;DHT22;26146;51.114;5.654;2023-05-14T01:35:28;13.70;99.90
40434;DHT22;26146;51.114;5.654;2023-05-14T01:39:30;13.60;99.90
40434;DHT22;26146;51.114;5.654;2023-05-14T01:43:32;13.40;99.90
40434;DHT22;26146;51.114;5.654;2023-05-14T01:47:34;13.40;99.90
40434;DHT22;26146;51.114;5.654;2023-05-14T01:51:35;13.30;99.90
40434;DHT22;26146;51.114;5.654;2023-05-14T01:55:36;13.40;99.90
40434;DHT22;26146;51.114;5.654;2023-05-14T01:59:37;13.30;99.90
40434;DHT22;26146;51.114;5.654;2023-05-14T02:03:38;13.20;99.90
40434;DHT22;26146;51.114;5.654;2023-05-14T02:07:39;13.20;99.90
40434;DHT22;26146;51.114;5.654;2023-05-14T02:11:40;13.10;99.90
40434;DHT22;26146;51.114;5.654;2023-05-14T02:15:41;13.10;99.90
40434;DHT22;26146;51.114;5.654;2023-05-14T02:19:45;13.00;99.90
40434;DHT22;26146;51.114;5.654;2023-05-14T02:23:46;12.90;99.90
40434;DHT22;26146;51.114;5.654;2023-05-14T02:27:49;12.80;99.90
40434;DHT22;26146;51.114;5.654;2023-05-14T02:31:50;12.80;99.90
40434;DHT22;26146;51.114;5.654;2023-05-14T02:35:51;12.60;99.90
40434;DHT22;26146;51.114;5.654;2023-05-14T02:39:52;12.60;99.90
40434;DHT22;26146;51.114;5.654;2023-05-14T02:43:53;12.60;99.90
40434;DHT22;26146;51.114;5.654;2023-05-14T02:47:55;12.50;99.90
40434;DHT22;26146;51.114;5.654;2023-05-14T02:51:56;12.50;99.90
40434;DHT22;26146;51.114;5.654;2023-05-14T02:55:57;12.50;99.90
40434;DHT22;26146;51.114;5.654;2023-05-14T02:59:58;12.50;99.90
40434;DHT22;26146;51.114;5.654;2023-05-14T03:03:59;12.40;99.90
40434;DHT22;26146;51.114;5.654;2023-05-14T03:08:00;12.40;99.90
40434;DHT22;26146;51.114;5.654;2023-05-14T03:12:02;12.40;99.90
40434;DHT22;26146;51.114;5.654;2023-05-14T03:16:03;12.20;99.90
40434;DHT22;26146;51.114;5.654;2023-05-14T03:20:05;12.10;99.90
40434;DHT22;26146;51.114;5.654;2023-05-14T03:24:06;11.90;99.90
40434;DHT22;26146;51.114;5.654;2023-05-14T03:28:07;12.00;99.90
40434;DHT22;26146;51.114;5.654;2023-05-14T03:32:09;11.90;99.90
40434;DHT22;26146;51.114;5.654;2023-05-14T03:36:10;11.90;99.90
40434;DHT22;26146;51.114;5.654;2023-05-14T03:40:11;11.90;99.90
40434;DHT22;26146;51.114;5.654;2023-05-14T03:44:13;11.90;99.90
40434;DHT22;26146;51.114;5.654;2023-05-14T03:48:14;11.90;99.90
40434;DHT22;26146;51.114;5.654;2023-05-14T03:52:15;11.90;99.90
40434;DHT22;26146;51.114;5.654;2023-05-14T03:56:16;11.90;99.90
40434;DHT22;26146;51.114;5.654;2023-05-14T04:00:17;11.90;99.90
40434;DHT22;26146;51.114;5.654;2023-05-14T04:04:18;12.00;99.90
40434;DHT22;26146;51.114;5.654;2023-05-14T04:08:20;12.10;99.90
40434;DHT22;26146;51.114;5.654;2023-05-14T04:12:21;12.10;99.90
40434;DHT22;26146;51.114;5.654;2023-05-14T04:16:22;12.00;99.90
40434;DHT22;26146;51.114;5.654;2023-05-14T04:20:23;11.90;99.90
40434;DHT22;26146;51.114;5.654;2023-05-14T04:24:24;12.00;99.90
40434;DHT22;26146;51.114;5.654;2023-05-14T04:28:25;12.10;99.90
40434;DHT22;26146;51.114;5.654;2023-05-14T04:32:26;12.00;99.90
40434;DHT22;26146;51.114;5.654;2023-05-14T04:36:27;12.00;99.90
40434;DHT22;26146;51.114;5.654;2023-05-14T04:40:29;12.20;99.90
40434;DHT22;26146;51.114;5.654;2023-05-14T04:44:32;12.10;99.90
40434;DHT22;26146;51.114;5.654;2023-05-14T04:48:33;12.40;99.90
40434;DHT22;26146;51.114;5.654;2023-05-14T04:52:34;12.20;99.90
40434;DHT22;26146;51.114;5.654;2023-05-14T04:56:35;12.50;99.90
40434;DHT22;26146;51.114;5.654;2023-05-14T05:00:37;12.60;99.90
40434;DHT22;26146;51.114;5.654;2023-05-14T05:04:38;12.90;99.90
40434;DHT22;26146;51.114;5.654;2023-05-14T05:08:39;12.90;99.90
40434;DHT22;26146;51.114;5.654;2023-05-14T05:12:41;13.00;99.90
40434;DHT22;26146;51.114;5.654;2023-05-14T05:16:42;13.20;99.90
40434;DHT22;26146;51.114;5.654;2023-05-14T05:20:44;13.30;99.90
40434;DHT22;26146;51.114;5.654;2023-05-14T05:24:45;13.50;99.90
40434;DHT22;26146;51.114;5.654;2023-05-14T05:28:46;13.60;99.90
40434;DHT22;26146;51.114;5.654;2023-05-14T05:32:47;13.60;99.90
40434;DHT22;26146;51.114;5.654;2023-05-14T05:36:48;13.70;99.90
40434;DHT22;26146;51.114;5.654;2023-05-14T05:40:50;13.70;99.90
40434;DHT22;26146;51.114;5.654;2023-05-14T05:44:51;13.80;99.90
40434;DHT22;26146;51.114;5.654;2023-05-14T05:48:52;13.90;99.90
40434;DHT22;26146;51.114;5.654;2023-05-14T05:52:53;14.20;99.90
40434;DHT22;26146;51.114;5.654;2023-05-14T05:56:54;14.40;99.90
40434;DHT22;26146;51.114;5.654;2023-05-14T06:00:55;14.50;99.90
40434;DHT22;26146;51.114;5.654;2023-05-14T06:04:57;14.60;99.90
40434;DHT22;26146;51.114;5.654;2023-05-14T06:08:58;14.80;99.90
40434;DHT22;26146;51.114;5.654;2023-05-14T06:13:01;14.90;99.90
40434;DHT22;26146;51.114;5.654;2023-05-14T06:17:02;15.00;99.90
40434;DHT22;26146;51.114;5.654;2023-05-14T06:21:03;14.90;99.90
40434;DHT22;26146;51.114;5.654;2023-05-14T06:25:05;15.10;99.90
40434;DHT22;26146;51.114;5.654;2023-05-14T06:29:06;15.20;99.90
40434;DHT22;26146;51.114;5.654;2023-05-14T06:33:07;15.60;99.90
40434;DHT22;26146;51.114;5.654;2023-05-14T06:37:10;15.90;99.90
40434;DHT22;26146;51.114;5.654;2023-05-14T06:41:11;15.90;99.90
40434;DHT22;26146;51.114;5.654;2023-05-14T06:45:12;16.00;99.90
40434;DHT22;26146;51.114;5.654;2023-05-14T06:49:13;16.10;99.90
40434;DHT22;26146;51.114;5.654;2023-05-14T06:53:14;16.10;99.90
40434;DHT22;26146;51.114;5.654;2023-05-14T06:57:16;15.90;99.90
40434;DHT22;26146;51.114;5.654;2023-05-14T07:01:17;15.90;99.90
40434;DHT22;26146;51.114;5.654;2023-05-14T07:05:18;15.80;99.90
40434;DHT22;26146;51.114;5.654;2023-05-14T07:09:19;16.20;99.90
40434;DHT22;26146;51.114;5.654;2023-05-14T07:13:20;16.30;99.90
40434;DHT22;26146;51.114;5.654;2023-05-14T07:17:21;16.30;99.90
40434;DHT22;26146;51.114;5.654;2023-05-14T07:21:23;16.30;99.90
40434;DHT22;26146;51.114;5.654;2023-05-14T07:25:24;16.40;99.90
40434;DHT22;26146;51.114;5.654;2023-05-14T07:29:25;16.70;99.90
40434;DHT22;26146;51.114;5.654;2023-05-14T07:33:26;16.50;99.90
40434;DHT22;26146;51.114;5.654;2023-05-14T07:37:27;16.40;99.90
40434;DHT22;26146;51.114;5.654;2023-05-14T07:41:30;16.40;99.90
40434;DHT22;26146;51.114;5.654;2023-05-14T07:45:31;16.60;99.90
40434;DHT22;26146;51.114;5.654;2023-05-14T07:49:32;16.70;99.90
40434;DHT22;26146;51.114;5.654;2023-05-14T07:53:33;17.10;99.90
40434;DHT22;26146;51.114;5.654;2023-05-14T07:57:34;17.20;99.90
40434;DHT22;26146;51.114;5.654;2023-05-14T08:01:35;17.30;99.90
40434;DHT22;26146;51.114;5.654;2023-05-14T08:05:37;17.50;99.90
40434;DHT22;26146;51.114;5.654;2023-05-14T08:09:38;17.70;99.90
40434;DHT22;26146;51.114;5.654;2023-05-14T08:13:39;17.60;99.90
40434;DHT22;26146;51.114;5.654;2023-05-14T08:17:40;17.80;99.90
40434;DHT22;26146;51.114;5.654;2023-05-14T08:21:41;17.90;99.90
40434;DHT22;26146;51.114;5.654;2023-05-14T08:25:42;18.10;99.90
40434;DHT22;26146;51.114;5.654;2023-05-14T08:29:43;18.10;99.90
40434;DHT22;26146;51.114;5.654;2023-05-14T08:33:45;18.10;99.90
40434;DHT22;26146;51.114;5.654;2023-05-14T08:37:46;18.20;99.90
40434;DHT22;26146;51.114;5.654;2023-05-14T08:41:47;18.30;99.90
40434;DHT22;26146;51.114;5.654;2023-05-14T08:45:48;18.40;99.90
40434;DHT22;26146;51.114;5.654;2023-05-14T08:49:58;18.50;99.90
40434;DHT22;26146;51.114;5.654;2023-05-14T08:54:01;18.60;99.90
40434;DHT22;26146;51.114;5.654;2023-05-14T08:58:03;18.70;99.90
40434;DHT22;26146;51.114;5.654;2023-05-14T09:02:05;18.90;99.90
40434;DHT22;26146;51.114;5.654;2023-05-14T09:06:08;18.90;99.90
40434;DHT22;26146;51.114;5.654;2023-05-14T09:10:10;19.10;99.90
40434;DHT22;26146;51.114;5.654;2023-05-14T09:14:11;19.30;99.90
40434;DHT22;26146;51.114;5.654;2023-05-14T09:18:12;19.40;99.90
40434;DHT22;26146;51.114;5.654;2023-05-14T09:22:15;19.60;99.90
40434;DHT22;26146;51.114;5.654;2023-05-14T09:26:16;19.70;99.90
40434;DHT22;26146;51.114;5.654;2023-05-14T09:30:18;19.80;99.90
40434;DHT22;26146;51.114;5.654;2023-05-14T09:34:24;19.70;99.90
40434;DHT22;26146;51.114;5.654;2023-05-14T09:38:32;19.60;99.90
40434;DHT22;26146;51.114;5.654;2023-05-14T09:42:33;19.60;99.90
40434;DHT22;26146;51.114;5.654;2023-05-14T09:46:34;19.70;99.90
40434;DHT22;26146;51.114;5.654;2023-05-14T09:50:43;19.70;99.90
40434;DHT22;26146;51.114;5.654;2023-05-14T09:54:45;19.60;99.90
40434;DHT22;26146;51.114;5.654;2023-05-14T09:58:46;19.70;99.90
40434;DHT22;26146;51.114;5.654;2023-05-14T10:02:49;19.80;99.90
40434;DHT22;26146;51.114;5.654;2023-05-14T10:06:53;19.90;99.90
40434;DHT22;26146;51.114;5.654;2023-05-14T10:10:57;19.90;99.90
40434;DHT22;26146;51.114;5.654;2023-05-14T10:15:02;20.20;99.90
40434;DHT22;26146;51.114;5.654;2023-05-14T10:19:08;20.40;99.90
40434;DHT22;26146;51.114;5.654;2023-05-14T10:23:10;20.30;99.90
40434;DHT22;26146;51.114;5.654;2023-05-14T10:27:11;20.40;99.90
40434;DHT22;26146;51.114;5.654;2023-05-14T10:31:12;20.70;99.90
40434;DHT22;26146;51.114;5.654;2023-05-14T10:35:18;20.80;99.70
40434;DHT22;26146;51.114;5.654;2023-05-14T10:39:23;21.00;99.00
40434;DHT22;26146;51.114;5.654;2023-05-14T10:43:26;20.80;98.20
40434;DHT22;26146;51.114;5.654;2023-05-14T10:47:31;20.80;98.10
40434;DHT22;26146;51.114;5.654;2023-05-14T10:51:33;20.90;96.60
40434;DHT22;26146;51.114;5.654;2023-05-14T10:55:34;20.90;97.50
40434;DHT22;26146;51.114;5.654;2023-05-14T10:59:35;21.10;98.20
40434;DHT22;26146;51.114;5.654;2023-05-14T11:03:45;21.00;97.90
40434;DHT22;26146;51.114;5.654;2023-05-14T11:07:47;21.30;98.70
40434;DHT22;26146;51.114;5.654;2023-05-14T11:11:49;21.80;96.90
40434;DHT22;26146;51.114;5.654;2023-05-14T11:15:50;21.70;96.10
40434;DHT22;26146;51.114;5.654;2023-05-14T11:19:54;21.90;96.40
40434;DHT22;26146;51.114;5.654;2023-05-14T11:23:55;22.30;96.00
40434;DHT22;26146;51.114;5.654;2023-05-14T11:27:57;21.60;97.30
40434;DHT22;26146;51.114;5.654;2023-05-14T11:32:03;21.80;96.10
40434;DHT22;26146;51.114;5.654;2023-05-14T11:36:05;22.00;97.20
40434;DHT22;26146;51.114;5.654;2023-05-14T11:40:08;22.40;95.30
40434;DHT22;26146;51.114;5.654;2023-05-14T11:44:12;22.70;94.40
40434;DHT22;26146;51.114;5.654;2023-05-14T11:48:13;22.90;94.90
40434;DHT22;26146;51.114;5.654;2023-05-14T11:52:15;23.10;94.10
40434;DHT22;26146;51.114;5.654;2023-05-14T11:56:20;23.80;93.80
40434;DHT22;26146;51.114;5.654;2023-05-14T12:00:21;23.90;91.80
40434;DHT22;26146;51.114;5.654;2023-05-14T12:04:24;23.90;91.00
40434;DHT22;26146;51.114;5.654;2023-05-14T12:08:27;23.50;91.90
40434;DHT22;26146;51.114;5.654;2023-05-14T12:12:34;23.70;90.60
40434;DHT22;26146;51.114;5.654;2023-05-14T12:16:39;24.10;89.30
40434;DHT22;26146;51.114;5.654;2023-05-14T12:20:48;24.60;88.30
40434;DHT22;26146;51.114;5.654;2023-05-14T12:24:56;24.30;88.20
40434;DHT22;26146;51.114;5.654;2023-05-14T12:29:03;24.00;84.00
40434;DHT22;26146;51.114;5.654;2023-05-14T12:33:04;23.90;84.00
40434;DHT22;26146;51.114;5.654;2023-05-14T12:37:06;23.80;79.70
40434;DHT22;26146;51.114;5.654;2023-05-14T12:41:07;24.00;86.40
40434;DHT22;26146;51.114;5.654;2023-05-14T12:45:08;23.70;84.20
40434;DHT22;26146;51.114;5.654;2023-05-14T12:49:09;23.80;88.20
40434;DHT22;26146;51.114;5.654;2023-05-14T12:53:10;24.70;84.10
40434;DHT22;26146;51.114;5.654;2023-05-14T12:57:15;25.40;83.20
40434;DHT22;26146;51.114;5.654;2023-05-14T13:01:24;25.60;77.50
40434;DHT22;26146;51.114;5.654;2023-05-14T13:05:36;25.60;77.30
40434;DHT22;26146;51.114;5.654;2023-05-14T13:09:37;24.90;78.40
40434;DHT22;26146;51.114;5.654;2023-05-14T13:13:38;24.90;77.90
40434;DHT22;26146;51.114;5.654;2023-05-14T13:17:39;25.10;77.70
40434;DHT22;26146;51.114;5.654;2023-05-14T13:21:41;25.10;74.40
40434;DHT22;26146;51.114;5.654;2023-05-14T13:25:42;24.80;73.50
40434;DHT22;26146;51.114;5.654;2023-05-14T13:29:43;24.70;75.50
40434;DHT22;26146;51.114;5.654;2023-05-14T13:33:44;24.40;72.80
40434;DHT22;26146;51.114;5.654;2023-05-14T13:37:46;24.20;72.10
40434;DHT22;26146;51.114;5.654;2023-05-14T13:41:47;24.20;79.70
40434;DHT22;26146;51.114;5.654;2023-05-14T13:45:50;24.30;78.60
40434;DHT22;26146;51.114;5.654;2023-05-14T13:49:54;24.40;76.90
40434;DHT22;26146;51.114;5.654;2023-05-14T13:53:56;24.70;77.50
40434;DHT22;26146;51.114;5.654;2023-05-14T13:57:57;24.60;76.90
40434;DHT22;26146;51.114;5.654;2023-05-14T14:01:59;24.60;75.40
40434;DHT22;26146;51.114;5.654;2023-05-14T14:06:00;24.60;74.50
40434;DHT22;26146;51.114;5.654;2023-05-14T14:10:01;25.00;72.00
40434;DHT22;26146;51.114;5.654;2023-05-14T14:14:02;25.10;71.80
40434;DHT22;26146;51.114;5.654;2023-05-14T14:18:04;25.30;72.10
40434;DHT22;26146;51.114;5.654;2023-05-14T14:22:05;25.50;70.40
40434;DHT22;26146;51.114;5.654;2023-05-14T14:26:06;25.20;70.00
40434;DHT22;26146;51.114;5.654;2023-05-14T14:30:09;25.00;70.40
40434;DHT22;26146;51.114;5.654;2023-05-14T14:34:16;24.50;69.90
40434;DHT22;26146;51.114;5.654;2023-05-14T14:38:18;24.20;71.00
40434;DHT22;26146;51.114;5.654;2023-05-14T14:42:19;24.10;72.30
40434;DHT22;26146;51.114;5.654;2023-05-14T14:46:20;24.30;71.90
40434;DHT22;26146;51.114;5.654;2023-05-14T14:50:21;24.40;73.40
40434;DHT22;26146;51.114;5.654;2023-05-14T14:54:23;24.10;72.80
40434;DHT22;26146;51.114;5.654;2023-05-14T14:58:24;24.30;72.20
40434;DHT22;26146;51.114;5.654;2023-05-14T15:02:25;24.30;71.90
40434;DHT22;26146;51.114;5.654;2023-05-14T15:06:27;24.20;71.30
40434;DHT22;26146;51.114;5.654;2023-05-14T15:10:29;23.80;71.90
40434;DHT22;26146;51.114;5.654;2023-05-14T15:14:30;23.60;73.00
40434;DHT22;26146;51.114;5.654;2023-05-14T15:18:31;23.70;73.90
40434;DHT22;26146;51.114;5.654;2023-05-14T15:22:32;23.90;73.40
40434;DHT22;26146;51.114;5.654;2023-05-14T15:26:33;23.90;74.30
40434;DHT22;26146;51.114;5.654;2023-05-14T15:30:35;24.10;74.00
40434;DHT22;26146;51.114;5.654;2023-05-14T15:34:36;23.90;73.60
40434;DHT22;26146;51.114;5.654;2023-05-14T15:38:37;24.00;73.90
40434;DHT22;26146;51.114;5.654;2023-05-14T15:42:40;23.90;74.40
40434;DHT22;26146;51.114;5.654;2023-05-14T15:46:41;23.80;71.80
40434;DHT22;26146;51.114;5.654;2023-05-14T15:50:43;23.50;74.40
40434;DHT22;26146;51.114;5.654;2023-05-14T15:54:45;23.40;76.20
40434;DHT22;26146;51.114;5.654;2023-05-14T15:58:47;23.40;74.80
40434;DHT22;26146;51.114;5.654;2023-05-14T16:02:48;23.40;75.10
40434;DHT22;26146;51.114;5.654;2023-05-14T16:06:50;23.30;73.50
40434;DHT22;26146;51.114;5.654;2023-05-14T16:10:51;23.30;74.40
40434;DHT22;26146;51.114;5.654;2023-05-14T16:14:52;23.20;72.00
40434;DHT22;26146;51.114;5.654;2023-05-14T16:18:53;23.30;73.80
40434;DHT22;26146;51.114;5.654;2023-05-14T16:22:54;22.90;74.40
40434;DHT22;26146;51.114;5.654;2023-05-14T16:26:55;22.80;77.00
40434;DHT22;26146;51.114;5.654;2023-05-14T16:30:57;22.80;76.40
40434;DHT22;26146;51.114;5.654;2023-05-14T16:34:58;22.90;75.90
40434;DHT22;26146;51.114;5.654;2023-05-14T16:39:01;22.90;76.60
40434;DHT22;26146;51.114;5.654;2023-05-14T16:43:02;22.80;77.50
40434;DHT22;26146;51.114;5.654;2023-05-14T16:47:04;22.70;78.10
40434;DHT22;26146;51.114;5.654;2023-05-14T16:51:05;22.30;78.80
40434;DHT22;26146;51.114;5.654;2023-05-14T16:55:06;22.20;80.30
40434;DHT22;26146;51.114;5.654;2023-05-14T16:59:07;22.00;82.10
40434;DHT22;26146;51.114;5.654;2023-05-14T17:03:08;22.00;82.40
40434;DHT22;26146;51.114;5.654;2023-05-14T17:07:10;21.90;83.50
40434;DHT22;26146;51.114;5.654;2023-05-14T17:11:11;21.80;83.60
40434;DHT22;26146;51.114;5.654;2023-05-14T17:15:12;21.80;84.60
40434;DHT22;26146;51.114;5.654;2023-05-14T17:19:13;21.80;85.80
40434;DHT22;26146;51.114;5.654;2023-05-14T17:23:14;21.60;86.00
40434;DHT22;26146;51.114;5.654;2023-05-14T17:27:15;21.50;88.00
40434;DHT22;26146;51.114;5.654;2023-05-14T17:31:16;21.50;87.50
40434;DHT22;26146;51.114;5.654;2023-05-14T17:35:17;21.40;88.40
40434;DHT22;26146;51.114;5.654;2023-05-14T17:39:18;21.40;88.20
40434;DHT22;26146;51.114;5.654;2023-05-14T17:43:20;21.30;86.70
40434;DHT22;26146;51.114;5.654;2023-05-14T17:47:21;21.20;87.70
40434;DHT22;26146;51.114;5.654;2023-05-14T17:51:22;21.10;89.60
40434;DHT22;26146;51.114;5.654;2023-05-14T17:55:23;21.20;89.70
40434;DHT22;26146;51.114;5.654;2023-05-14T17:59:24;21.10;90.50
40434;DHT22;26146;51.114;5.654;2023-05-14T18:03:25;21.00;90.50
40434;DHT22;26146;51.114;5.654;2023-05-14T18:07:27;21.00;90.40
40434;DHT22;26146;51.114;5.654;2023-05-14T18:11:29;20.90;91.00
40434;DHT22;26146;51.114;5.654;2023-05-14T18:15:34;20.80;90.90
40434;DHT22;26146;51.114;5.654;2023-05-14T18:19:36;20.60;91.50
40434;DHT22;26146;51.114;5.654;2023-05-14T18:23:37;20.50;92.20
40434;DHT22;26146;51.114;5.654;2023-05-14T18:27:38;20.40;92.20
40434;DHT22;26146;51.114;5.654;2023-05-14T18:31:43;20.50;92.50
40434;DHT22;26146;51.114;5.654;2023-05-14T18:35:45;20.40;92.30
40434;DHT22;26146;51.114;5.654;2023-05-14T18:39:46;20.20;91.90
40434;DHT22;26146;51.114;5.654;2023-05-14T18:43:47;20.10;91.50
40434;DHT22;26146;51.114;5.654;2023-05-14T18:47:49;20.00;91.60
40434;DHT22;26146;51.114;5.654;2023-05-14T18:51:50;19.90;92.00
40434;DHT22;26146;51.114;5.654;2023-05-14T18:55:51;19.90;91.90
40434;DHT22;26146;51.114;5.654;2023-05-14T18:59:52;19.70;92.40
40434;DHT22;26146;51.114;5.654;2023-05-14T19:03:53;19.50;92.70
40434;DHT22;26146;51.114;5.654;2023-05-14T19:07:55;19.50;92.90
40434;DHT22;26146;51.114;5.654;2023-05-14T19:11:56;19.50;93.60
40434;DHT22;26146;51.114;5.654;2023-05-14T19:15:58;19.40;96.50
40434;DHT22;26146;51.114;5.654;2023-05-14T19:19:59;19.40;99.90
40434;DHT22;26146;51.114;5.654;2023-05-14T19:24:00;19.30;99.90
40434;DHT22;26146;51.114;5.654;2023-05-14T19:28:01;19.10;99.90
40434;DHT22;26146;51.114;5.654;2023-05-14T19:32:04;19.00;99.90
40434;DHT22;26146;51.114;5.654;2023-05-14T19:36:06;18.80;99.90
40434;DHT22;26146;51.114;5.654;2023-05-14T19:40:08;18.60;99.90
40434;DHT22;26146;51.114;5.654;2023-05-14T19:44:09;18.30;99.90
40434;DHT22;26146;51.114;5.654;2023-05-14T19:48:10;18.30;99.90
40434;DHT22;26146;51.114;5.654;2023-05-14T19:52:13;18.10;99.90
40434;DHT22;26146;51.114;5.654;2023-05-14T19:56:14;18.10;99.90
40434;DHT22;26146;51.114;5.654;2023-05-14T20:00:16;17.90;99.90
40434;DHT22;26146;51.114;5.654;2023-05-14T20:04:17;17.70;99.90
40434;DHT22;26146;51.114;5.654;2023-05-14T20:08:19;17.80;99.90
40434;DHT22;26146;51.114;5.654;2023-05-14T20:12:21;17.70;99.90
40434;DHT22;26146;51.114;5.654;2023-05-14T20:16:22;17.60;99.90
40434;DHT22;26146;51.114;5.654;2023-05-14T20:20:23;17.50;99.90
40434;DHT22;26146;51.114;5.654;2023-05-14T20:24:25;17.30;99.90
40434;DHT22;26146;51.114;5.654;2023-05-14T20:28:26;17.10;99.90
40434;DHT22;26146;51.114;5.654;2023-05-14T20:32:27;17.00;99.90
40434;DHT22;26146;51.114;5.654;2023-05-14T20:36:29;16.80;99.90
40434;DHT22;26146;51.114;5.654;2023-05-14T20:40:30;16.80;99.90
40434;DHT22;26146;51.114;5.654;2023-05-14T20:44:32;16.70;99.90
40434;DHT22;26146;51.114;5.654;2023-05-14T20:48:33;16.60;99.90
40434;DHT22;26146;51.114;5.654;2023-05-14T20:52:34;16.60;99.90
40434;DHT22;26146;51.114;5.654;2023-05-14T20:56:36;16.50;99.90
40434;DHT22;26146;51.114;5.654;2023-05-14T21:00:37;16.40;99.90
40434;DHT22;26146;51.114;5.654;2023-05-14T21:04:38;16.20;99.90
40434;DHT22;26146;51.114;5.654;2023-05-14T21:08:40;16.20;99.90
40434;DHT22;26146;51.114;5.654;2023-05-14T21:12:41;16.10;99.90
40434;DHT22;26146;51.114;5.654;2023-05-14T21:16:42;16.10;99.90
40434;DHT22;26146;51.114;5.654;2023-05-14T21:20:43;16.00;99.90
40434;DHT22;26146;51.114;5.654;2023-05-14T21:24:45;15.90;99.90
40434;DHT22;26146;51.114;5.654;2023-05-14T21:28:46;15.80;99.90
40434;DHT22;26146;51.114;5.654;2023-05-14T21:32:47;15.80;99.90
40434;DHT22;26146;51.114;5.654;2023-05-14T21:36:49;15.80;99.90
40434;DHT22;26146;51.114;5.654;2023-05-14T21:40:50;15.70;99.90
40434;DHT22;26146;51.114;5.654;2023-05-14T21:44:51;15.70;99.90
40434;DHT22;26146;51.114;5.654;2023-05-14T21:48:52;15.50;99.90
40434;DHT22;26146;51.114;5.654;2023-05-14T21:52:53;15.50;99.90
40434;DHT22;26146;51.114;5.654;2023-05-14T21:56:54;15.40;99.90
40434;DHT22;26146;51.114;5.654;2023-05-14T22:00:56;15.40;99.90
40434;DHT22;26146;51.114;5.654;2023-05-14T22:04:57;15.30;99.90
40434;DHT22;26146;51.114;5.654;2023-05-14T22:08:58;15.10;99.90
40434;DHT22;26146;51.114;5.654;2023-05-14T22:12:59;15.10;99.90
40434;DHT22;26146;51.114;5.654;2023-05-14T22:17:00;15.10;99.90
40434;DHT22;26146;51.114;5.654;2023-05-14T22:21:02;15.00;99.90
40434;DHT22;26146;51.114;5.654;2023-05-14T22:25:03;14.90;99.90
40434;DHT22;26146;51.114;5.654;2023-05-14T22:29:04;14.90;99.90
40434;DHT22;26146;51.114;5.654;2023-05-14T22:33:05;14.90;99.90
40434;DHT22;26146;51.114;5.654;2023-05-14T22:37:07;14.80;99.90
40434;DHT22;26146;51.114;5.654;2023-05-14T22:41:09;14.80;99.90
40434;DHT22;26146;51.114;5.654;2023-05-14T22:45:10;14.70;99.90
40434;DHT22;26146;51.114;5.654;2023-05-14T22:49:11;14.60;99.90
40434;DHT22;26146;51.114;5.654;2023-05-14T22:53:12;14.80;99.90
40434;DHT22;26146;51.114;5.654;2023-05-14T22:57:13;14.90;99.90
40434;DHT22;26146;51.114;5.654;2023-05-14T23:01:14;14.80;99.90
40434;DHT22;26146;51.114;5.654;2023-05-14T23:05:15;14.70;99.90
40434;DHT22;26146;51.114;5.654;2023-05-14T23:09:17;14.60;99.90
40434;DHT22;26146;51.114;5.654;2023-05-14T23:13:18;14.60;99.90
40434;DHT22;26146;51.114;5.654;2023-05-14T23:17:19;14.60;99.90
40434;DHT22;26146;51.114;5.654;2023-05-14T23:21:21;14.70;99.90
40434;DHT22;26146;51.114;5.654;2023-05-14T23:25:22;14.60;99.90
40434;DHT22;26146;51.114;5.654;2023-05-14T23:29:23;14.60;99.90
40434;DHT22;26146;51.114;5.654;2023-05-14T23:33:24;14.50;99.90
40434;DHT22;26146;51.114;5.654;2023-05-14T23:37:25;14.50;99.90
40434;DHT22;26146;51.114;5.654;2023-05-14T23:41:26;14.20;99.90
40434;DHT22;26146;51.114;5.654;2023-05-14T23:45:28;14.20;99.90
40434;DHT22;26146;51.114;5.654;2023-05-14T23:49:30;14.30;99.90
40434;DHT22;26146;51.114;5.654;2023-05-14T23:53:31;14.20;99.90
40434;DHT22;26146;51.114;5.654;2023-05-14T23:57:32;14.30;99.90
